Terminal Aerodrome Forecast
Issued by NWS

Home | Current Version | Previous Version | Text Only | Print | Product List | Glossary On
Versions: 1 2 3 4 5 6 7 8 9 10 11 12 13 14 15 16 17 18 19 20 21 22 23 24
000
FTUS43 KDTX 201700
TAFYIP
TAF
KYIP 201720Z 2018/2118 22016G24KT P6SM SCT040 SCT120 BKN250
     FM202200 24012KT 5SM SHRA BKN035 BKN100
      TEMPO 2023/2101 3SM TSRA BKN028CB OVC035
     FM210300 24008KT P6SM BKN030 OVC050
     FM210800 22005KT 4SM -SHRA BR BKN012 OVC030
     FM211400 28009KT 6SM HZ BKN020 OVC035=

USA.gov is the U.S. government's official web portal to all federal, state and local government web resources and services.